Time;durP1;ratioP1;P1;durP2;ratioP2;P2;SDS_P1;SDS_P2;PMS_P1;PMS_P2;Temp;Humidity;BMP_temperature;BMP_pressure;BME280_temperature;BME280_humidity;BME280_pressure;Samples;Min_cycle;Max_cycle;Signal;HPM_P1;HPM_P2
2022/07/24 00:01:49;;;;;;;1.97;1.90;;;16.30;97.30;;;;;;5071487;28;20539;-86
2022/07/24 00:04:15;;;;;;;2.07;1.57;;;16.30;97.30;;;;;;5070228;28;20201;-85
2022/07/24 00:06:41;;;;;;;2.40;1.40;;;16.20;97.30;;;;;;5070378;28;20201;-85
2022/07/24 00:09:07;;;;;;;1.53;1.43;;;16.20;97.30;;;;;;5070209;28;20672;-85
2022/07/24 00:11:32;;;;;;;1.77;1.40;;;16.20;97.30;;;;;;5070129;28;20414;-86
2022/07/24 00:13:58;;;;;;;1.50;1.40;;;16.10;97.30;;;;;;5072992;28;20211;-86
2022/07/24 00:16:23;;;;;;;2.10;1.93;;;16.00;97.30;;;;;;5073265;28;20175;-85
2022/07/24 00:18:49;;;;;;;1.40;1.30;;;16.00;97.30;;;;;;5074675;28;20213;-85
2022/07/24 00:21:15;;;;;;;5.20;2.00;;;15.90;97.30;;;;;;5073507;28;20200;-85
2022/07/24 00:23:42;;;;;;;1.43;1.33;;;15.90;97.30;;;;;;5073574;28;20179;-85
2022/07/24 00:26:09;;;;;;;1.90;1.80;;;15.80;97.30;;;;;;5073295;28;20980;-85
2022/07/24 00:28:34;;;;;;;2.60;2.03;;;15.80;97.30;;;;;;5073444;28;20453;-85
2022/07/24 00:31:00;;;;;;;2.73;2.40;;;15.80;97.30;;;;;;5074768;28;20406;-84
2022/07/24 00:33:26;;;;;;;1.90;1.80;;;15.70;97.30;;;;;;5073083;28;20532;-85
2022/07/24 00:35:51;;;;;;;2.73;2.27;;;15.70;97.30;;;;;;5072996;28;20202;-84
2022/07/24 00:38:17;;;;;;;2.50;1.83;;;15.60;97.30;;;;;;5072599;28;20206;-84
2022/07/24 00:40:42;;;;;;;2.07;1.77;;;15.60;97.30;;;;;;5073059;28;20172;-84
2022/07/24 00:43:08;;;;;;;1.50;1.40;;;15.50;97.30;;;;;;5072977;28;20338;-85
2022/07/24 00:45:34;;;;;;;1.93;1.83;;;15.50;97.30;;;;;;5072481;28;20175;-85
2022/07/24 00:47:59;;;;;;;1.23;1.17;;;15.50;97.30;;;;;;5072488;28;20195;-85
2022/07/24 00:50:26;;;;;;;1.83;1.77;;;15.50;97.30;;;;;;5072527;28;20179;-85
2022/07/24 00:52:52;;;;;;;1.47;1.40;;;15.40;97.30;;;;;;5072440;28;20254;-85
2022/07/24 00:55:18;;;;;;;1.97;1.37;;;15.40;97.30;;;;;;5072225;28;20516;-84
2022/07/24 00:57:46;;;;;;;1.93;1.83;;;15.30;97.30;;;;;;5072915;28;20448;-84
2022/07/24 01:00:13;;;;;;;1.53;1.43;;;15.30;97.30;;;;;;5072948;28;20417;-86
2022/07/24 01:02:41;;;;;;;4.37;1.80;;;15.30;97.30;;;;;;5073245;28;20409;-85
2022/07/24 01:05:08;;;;;;;2.30;1.83;;;15.30;97.30;;;;;;5072418;28;20417;-85
2022/07/24 01:07:34;;;;;;;2.23;2.03;;;15.20;97.30;;;;;;5072795;28;20695;-85
2022/07/24 01:10:00;;;;;;;1.70;1.63;;;15.20;97.30;;;;;;5072468;28;20423;-86
2022/07/24 01:12:26;;;;;;;2.40;1.73;;;15.20;97.30;;;;;;5072287;28;20187;-85
2022/07/24 01:14:52;;;;;;;1.33;1.30;;;15.20;97.30;;;;;;5072196;28;20214;-85
2022/07/24 01:17:18;;;;;;;1.73;1.63;;;15.20;97.30;;;;;;5072060;28;20488;-85
2022/07/24 01:19:43;;;;;;;0.90;0.90;;;15.10;97.30;;;;;;5072402;28;20256;-84
2022/07/24 01:22:09;;;;;;;2.43;1.80;;;15.00;97.30;;;;;;5071964;28;20178;-85
2022/07/24 01:24:36;;;;;;;3.00;2.27;;;15.00;97.30;;;;;;5072148;28;20181;-85
2022/07/24 01:27:01;;;;;;;2.13;1.40;;;14.90;97.30;;;;;;5070981;28;20547;-83
2022/07/24 01:29:27;;;;;;;2.10;1.73;;;14.90;97.30;;;;;;5071639;28;20436;-85
2022/07/24 01:31:53;;;;;;;1.60;1.50;;;14.90;97.30;;;;;;5071465;28;20672;-85
2022/07/24 01:34:18;;;;;;;1.50;1.50;;;14.80;97.30;;;;;;5071353;28;20204;-85
2022/07/24 01:36:44;;;;;;;1.70;1.50;;;14.80;97.30;;;;;;5071383;28;20175;-85
2022/07/24 01:39:09;;;;;;;1.60;1.50;;;14.80;97.30;;;;;;5071553;28;20210;-85
2022/07/24 01:41:36;;;;;;;2.23;1.93;;;14.70;97.30;;;;;;5070965;28;20199;-85
2022/07/24 01:44:02;;;;;;;5.20;2.13;;;14.70;97.30;;;;;;5071501;28;20492;-86
2022/07/24 01:46:28;;;;;;;1.73;1.63;;;14.60;97.30;;;;;;5071373;28;20176;-85
2022/07/24 01:48:53;;;;;;;1.83;1.83;;;14.60;97.30;;;;;;5071050;28;20203;-86
2022/07/24 01:51:19;;;;;;;1.93;1.83;;;14.50;97.30;;;;;;5070948;28;20222;-85
2022/07/24 01:53:44;;;;;;;1.30;1.20;;;14.50;97.30;;;;;;5064731;28;20274;-85
2022/07/24 01:56:10;;;;;;;1.70;1.20;;;14.50;97.30;;;;;;5052288;28;20258;-85
2022/07/24 01:58:38;;;;;;;2.30;2.10;;;14.40;97.30;;;;;;5051048;28;20231;-85
2022/07/24 02:01:04;;;;;;;1.50;1.33;;;14.40;97.30;;;;;;5050908;28;20178;-85
2022/07/24 02:03:29;;;;;;;1.77;1.60;;;14.40;97.30;;;;;;5050530;28;20859;-85
2022/07/24 02:05:55;;;;;;;2.20;1.70;;;14.40;97.30;;;;;;5050745;28;20214;-85
2022/07/24 02:08:20;;;;;;;2.97;2.03;;;14.30;97.30;;;;;;5051116;28;20654;-85
2022/07/24 02:10:46;;;;;;;2.37;2.17;;;14.30;97.30;;;;;;5050194;28;20630;-86
2022/07/24 02:13:11;;;;;;;1.93;1.73;;;14.30;97.30;;;;;;5050360;28;20630;-86
2022/07/24 02:15:37;;;;;;;2.13;1.90;;;14.30;97.30;;;;;;5052018;28;20214;-85
2022/07/24 02:18:03;;;;;;;2.10;1.67;;;14.30;97.30;;;;;;5050349;28;20241;-85
2022/07/24 02:20:29;;;;;;;3.97;2.70;;;14.30;97.30;;;;;;5050528;28;20211;-85
2022/07/24 02:22:55;;;;;;;2.40;2.20;;;14.30;97.30;;;;;;5050328;28;20172;-85
2022/07/24 02:25:21;;;;;;;1.50;1.40;;;14.20;97.30;;;;;;5050075;28;20183;-86
2022/07/24 02:27:46;;;;;;;3.20;2.13;;;14.20;97.30;;;;;;5049982;28;20203;-85
2022/07/24 02:30:15;;;;;;;1.93;1.67;;;14.20;97.30;;;;;;5050204;28;20422;-85
2022/07/24 02:32:41;;;;;;;2.47;2.17;;;14.10;97.30;;;;;;5051596;28;20179;-85
2022/07/24 02:35:07;;;;;;;2.27;2.07;;;14.10;97.30;;;;;;5050182;28;21096;-86
2022/07/24 02:37:36;;;;;;;3.07;2.30;;;14.00;97.30;;;;;;5049459;28;20200;-85
2022/07/24 02:40:03;;;;;;;2.10;1.47;;;14.00;97.30;;;;;;5049730;28;20422;-84
2022/07/24 02:42:29;;;;;;;2.70;2.40;;;14.00;97.30;;;;;;5050015;28;20485;-85
2022/07/24 02:44:55;;;;;;;2.87;1.90;;;14.00;97.30;;;;;;5049842;28;20446;-85
2022/07/24 02:47:20;;;;;;;5.13;1.67;;;13.90;97.30;;;;;;5049870;28;20172;-85
2022/07/24 02:49:46;;;;;;;8.63;3.13;;;13.90;97.30;;;;;;5050271;28;20207;-84
2022/07/24 02:52:11;;;;;;;1.83;1.50;;;13.80;97.30;;;;;;5049853;28;20231;-84
2022/07/24 02:54:37;;;;;;;1.60;1.50;;;13.80;97.30;;;;;;5050093;28;20652;-85
2022/07/24 02:57:02;;;;;;;1.97;1.87;;;13.80;97.30;;;;;;5049802;28;20582;-86
2022/07/24 02:59:28;;;;;;;1.80;1.70;;;13.70;97.30;;;;;;5050059;28;20692;-85
2022/07/24 03:01:53;;;;;;;2.60;2.03;;;13.70;97.30;;;;;;5049742;28;20179;-84
2022/07/24 03:04:19;;;;;;;2.87;2.00;;;13.70;97.30;;;;;;5051299;28;20188;-85
2022/07/24 03:06:44;;;;;;;2.40;2.13;;;13.60;97.30;;;;;;5050023;28;20175;-85
2022/07/24 03:09:10;;;;;;;1.43;1.33;;;13.60;97.30;;;;;;5049869;28;20214;-85
2022/07/24 03:11:36;;;;;;;2.03;1.90;;;13.60;97.30;;;;;;5049869;28;20270;-86
2022/07/24 03:14:01;;;;;;;1.87;1.77;;;13.60;97.30;;;;;;5049823;28;20548;-86
2022/07/24 03:16:27;;;;;;;2.37;1.77;;;13.60;97.30;;;;;;5049566;28;20581;-85
2022/07/24 03:18:52;;;;;;;4.23;2.30;;;13.60;97.30;;;;;;5049639;28;20222;-86
2022/07/24 03:21:19;;;;;;;4.60;2.07;;;13.60;97.30;;;;;;5049452;28;20172;-85
2022/07/24 03:23:45;;;;;;;2.00;1.90;;;13.60;97.30;;;;;;5049479;28;20172;-86
2022/07/24 03:26:11;;;;;;;2.07;1.60;;;13.50;97.30;;;;;;5049722;28;20506;-85
2022/07/24 03:28:36;;;;;;;2.60;2.30;;;13.50;97.30;;;;;;5050914;28;20508;-85
2022/07/24 03:31:02;;;;;;;2.27;2.07;;;13.50;97.30;;;;;;5049815;28;20648;-85
2022/07/24 03:33:28;;;;;;;1.87;1.70;;;13.50;97.30;;;;;;5049443;28;20194;-84
2022/07/24 03:35:54;;;;;;;2.07;1.87;;;13.50;97.30;;;;;;5049301;28;20186;-85
2022/07/24 03:38:20;;;;;;;3.47;2.73;;;13.50;97.30;;;;;;5050424;28;20558;-84
2022/07/24 03:40:46;;;;;;;3.60;2.57;;;13.40;97.30;;;;;;5050009;28;20513;-85
2022/07/24 03:43:11;;;;;;;2.90;1.83;;;13.50;97.30;;;;;;5049774;28;20183;-86
2022/07/24 03:45:37;;;;;;;3.87;2.73;;;13.50;97.30;;;;;;5049357;28;20179;-86
2022/07/24 03:48:03;;;;;;;4.03;2.70;;;13.50;97.30;;;;;;5050955;28;20202;-85
2022/07/24 03:50:29;;;;;;;1.57;1.47;;;13.50;97.30;;;;;;5053031;28;20271;-85
2022/07/24 03:52:55;;;;;;;4.20;2.70;;;13.50;97.30;;;;;;5053268;28;20867;-85
2022/07/24 03:55:20;;;;;;;2.33;2.07;;;13.50;97.30;;;;;;5053376;28;20183;-85
2022/07/24 03:57:46;;;;;;;3.10;1.93;;;13.40;97.30;;;;;;5053214;28;20223;-85
2022/07/24 04:00:12;;;;;;;2.00;1.90;;;13.50;97.30;;;;;;5053055;28;20164;-85
2022/07/24 04:02:38;;;;;;;2.10;1.93;;;13.40;97.30;;;;;;5052793;28;20199;-85
2022/07/24 04:05:08;;;;;;;4.80;2.30;;;13.40;97.30;;;;;;5053580;28;20459;-84
2022/07/24 04:07:34;;;;;;;2.20;2.00;;;13.40;97.30;;;;;;5052984;28;20462;-85
2022/07/24 04:10:00;;;;;;;2.30;2.10;;;13.40;97.30;;;;;;5053747;28;20417;-84
2022/07/24 04:12:25;;;;;;;2.17;1.93;;;13.40;97.30;;;;;;5052541;28;20832;-84
2022/07/24 04:14:51;;;;;;;1.90;1.80;;;13.40;97.30;;;;;;5053603;28;20191;-85
2022/07/24 04:17:16;;;;;;;2.93;2.40;;;13.40;97.30;;;;;;5052481;28;20298;-85
2022/07/24 04:19:42;;;;;;;7.37;2.93;;;13.40;97.30;;;;;;5052534;28;20286;-85
2022/07/24 04:22:08;;;;;;;2.43;2.00;;;13.50;97.30;;;;;;5052256;28;20630;-85
2022/07/24 04:24:34;;;;;;;1.80;1.67;;;13.50;97.30;;;;;;5054139;28;20198;-85
2022/07/24 04:26:59;;;;;;;2.60;2.30;;;13.50;97.30;;;;;;5052351;28;20418;-85
2022/07/24 04:29:25;;;;;;;2.53;1.97;;;13.60;97.30;;;;;;5052240;28;20196;-85
2022/07/24 04:31:50;;;;;;;2.93;2.20;;;13.60;97.30;;;;;;5052349;28;20195;-85
2022/07/24 04:34:16;;;;;;;3.33;2.10;;;13.70;97.30;;;;;;5052201;28;20251;-84
2022/07/24 04:36:42;;;;;;;1.57;1.50;;;13.70;97.30;;;;;;5052261;28;20171;-84
2022/07/24 04:39:07;;;;;;;3.10;1.90;;;13.70;97.30;;;;;;5053224;28;20712;-85
2022/07/24 04:41:33;;;;;;;3.00;2.20;;;13.80;97.30;;;;;;5051934;28;20550;-85
2022/07/24 04:43:58;;;;;;;2.20;2.00;;;13.80;97.30;;;;;;5051743;28;20559;-85
2022/07/24 04:46:24;;;;;;;2.53;2.33;;;13.90;97.30;;;;;;5051915;28;20544;-85
2022/07/24 04:48:49;;;;;;;2.53;2.33;;;14.00;97.30;;;;;;5052529;28;20677;-85
2022/07/24 04:51:15;;;;;;;1.67;1.57;;;14.00;97.30;;;;;;5051716;28;20227;-84
2022/07/24 04:53:40;;;;;;;2.50;1.40;;;14.10;97.30;;;;;;5051772;28;20534;-84
2022/07/24 04:56:06;;;;;;;5.33;2.60;;;14.10;97.30;;;;;;5051399;28;20176;-85
2022/07/24 04:58:32;;;;;;;2.67;2.50;;;14.20;97.30;;;;;;5051618;28;20299;-85
2022/07/24 05:00:58;;;;;;;5.73;3.20;;;14.20;97.30;;;;;;5050540;28;20203;-84
2022/07/24 05:03:23;;;;;;;2.87;2.33;;;14.30;97.30;;;;;;5051609;28;20182;-84
2022/07/24 05:05:49;;;;;;;3.20;2.67;;;14.40;97.30;;;;;;5051359;28;20411;-85
2022/07/24 05:08:15;;;;;;;4.50;2.10;;;14.40;97.30;;;;;;5051314;28;20669;-85
2022/07/24 05:10:40;;;;;;;4.40;2.60;;;14.50;97.30;;;;;;5051772;28;20190;-84
2022/07/24 05:13:06;;;;;;;3.40;2.50;;;14.50;97.30;;;;;;5051518;28;20184;-83
2022/07/24 05:15:31;;;;;;;3.37;2.43;;;14.60;97.30;;;;;;5051086;28;20275;-85
2022/07/24 05:17:57;;;;;;;6.30;3.50;;;14.60;97.30;;;;;;5050925;28;20246;-85
2022/07/24 05:20:22;;;;;;;4.40;2.10;;;14.70;97.30;;;;;;5051367;28;20640;-83
2022/07/24 05:22:48;;;;;;;3.50;2.43;;;14.80;97.30;;;;;;5051250;28;20262;-85
2022/07/24 05:25:14;;;;;;;2.73;2.57;;;14.80;97.30;;;;;;5051189;28;20203;-85
2022/07/24 05:27:40;;;;;;;3.23;2.37;;;14.90;97.30;;;;;;5051078;28;20570;-84
2022/07/24 05:30:06;;;;;;;2.37;2.17;;;14.90;97.30;;;;;;5050981;28;20187;-84
2022/07/24 05:32:32;;;;;;;1.93;1.90;;;15.00;97.30;;;;;;5050771;28;20580;-85
2022/07/24 05:34:57;;;;;;;2.70;2.50;;;15.00;97.30;;;;;;5050564;28;20431;-85
2022/07/24 05:37:23;;;;;;;3.30;3.00;;;15.10;97.30;;;;;;5050557;28;20210;-85
2022/07/24 05:39:48;;;;;;;5.10;2.60;;;15.10;97.30;;;;;;5050676;28;20196;-85
2022/07/24 05:42:14;;;;;;;2.83;2.63;;;15.20;97.30;;;;;;5051080;28;20182;-84
2022/07/24 05:44:40;;;;;;;4.00;3.23;;;15.20;97.30;;;;;;5050656;28;20180;-85
2022/07/24 05:47:05;;;;;;;3.10;2.77;;;15.30;97.30;;;;;;5050786;28;20187;-84
2022/07/24 05:49:32;;;;;;;4.23;2.57;;;15.30;97.30;;;;;;5050391;28;20203;-84
2022/07/24 05:51:57;;;;;;;2.53;2.10;;;15.40;97.30;;;;;;5050308;28;20791;-84
2022/07/24 05:54:23;;;;;;;4.07;2.30;;;15.50;97.30;;;;;;5051225;28;20461;-83
2022/07/24 05:56:48;;;;;;;2.67;2.43;;;15.50;97.30;;;;;;5050988;28;20240;-84
2022/07/24 05:59:14;;;;;;;3.67;3.17;;;15.60;97.30;;;;;;5050641;28;20196;-84
2022/07/24 06:01:40;;;;;;;4.80;3.10;;;15.70;97.30;;;;;;5050250;28;20175;-84
2022/07/24 06:04:05;;;;;;;3.23;2.60;;;15.80;97.30;;;;;;5050969;28;20586;-84
2022/07/24 06:06:31;;;;;;;50.00;3.20;;;15.90;97.30;;;;;;5050774;28;20176;-85
2022/07/24 06:08:56;;;;;;;2.10;1.83;;;15.90;97.30;;;;;;5050965;28;20202;-85
2022/07/24 06:11:23;;;;;;;4.23;2.60;;;16.00;97.30;;;;;;5051137;28;20176;-85
2022/07/24 06:13:49;;;;;;;3.07;2.10;;;16.10;97.30;;;;;;5051210;28;20274;-84
2022/07/24 06:16:15;;;;;;;2.33;1.80;;;16.10;97.30;;;;;;5051145;28;20513;-85
2022/07/24 06:18:41;;;;;;;2.43;2.27;;;16.20;97.30;;;;;;5051625;28;20211;-83
2022/07/24 06:21:06;;;;;;;2.10;1.93;;;16.30;97.30;;;;;;5051202;28;20181;-82
2022/07/24 06:23:32;;;;;;;1.40;1.40;;;16.40;97.30;;;;;;5051109;28;20709;-85
2022/07/24 06:25:58;;;;;;;2.13;1.97;;;16.50;97.30;;;;;;5051380;28;20270;-84
2022/07/24 06:28:24;;;;;;;1.50;1.40;;;16.60;97.30;;;;;;5051266;28;20229;-84
2022/07/24 06:30:50;;;;;;;1.40;1.30;;;16.80;97.30;;;;;;5051149;28;20414;-85
2022/07/24 06:33:15;;;;;;;2.43;2.23;;;16.90;97.30;;;;;;5051377;28;20179;-84
2022/07/24 06:35:41;;;;;;;1.90;1.80;;;17.00;97.30;;;;;;5050676;28;20180;-85
2022/07/24 06:38:07;;;;;;;2.00;1.40;;;17.20;97.30;;;;;;5050972;28;20214;-85
2022/07/24 06:40:34;;;;;;;1.60;1.53;;;17.30;97.30;;;;;;5051393;28;20172;-84
2022/07/24 06:42:59;;;;;;;1.60;1.50;;;17.50;97.30;;;;;;5052229;28;20188;-83
2022/07/24 06:45:25;;;;;;;1.80;1.73;;;17.70;97.30;;;;;;5051649;28;20465;-85
2022/07/24 06:47:50;;;;;;;1.50;1.40;;;17.80;97.30;;;;;;5051458;28;20227;-85
2022/07/24 06:50:16;;;;;;;1.50;1.40;;;18.00;97.30;;;;;;5051419;28;20274;-85
2022/07/24 06:52:42;;;;;;;1.73;1.43;;;18.10;97.30;;;;;;5051824;28;20281;-85
2022/07/24 06:55:08;;;;;;;2.80;2.47;;;18.30;97.30;;;;;;5051719;28;20179;-85
2022/07/24 06:57:34;;;;;;;1.67;1.60;;;18.40;97.30;;;;;;5050980;28;20207;-84
2022/07/24 07:00:00;;;;;;;1.87;1.77;;;18.50;97.30;;;;;;5051702;28;20442;-85
2022/07/24 07:02:25;;;;;;;2.13;2.00;;;18.70;97.30;;;;;;5051724;28;20464;-84
2022/07/24 07:04:51;;;;;;;1.57;1.47;;;18.80;97.30;;;;;;5051436;28;20614;-86
2022/07/24 07:07:17;;;;;;;1.80;1.70;;;19.00;97.00;;;;;;5051310;28;20191;-85
2022/07/24 07:09:43;;;;;;;2.73;1.60;;;19.10;95.60;;;;;;5051694;28;20267;-85
2022/07/24 07:12:09;;;;;;;1.73;1.63;;;19.30;95.20;;;;;;5051799;28;20234;-85
2022/07/24 07:14:34;;;;;;;1.30;1.20;;;19.40;95.00;;;;;;5051896;28;20418;-86
2022/07/24 07:17:00;;;;;;;2.10;1.63;;;19.50;94.40;;;;;;5051584;28;20445;-85
2022/07/24 07:19:26;;;;;;;1.20;1.10;;;19.60;93.70;;;;;;5051084;28;20208;-86
2022/07/24 07:21:51;;;;;;;2.87;1.30;;;19.70;92.10;;;;;;5051562;28;20290;-86
2022/07/24 07:24:17;;;;;;;1.53;1.43;;;19.80;91.70;;;;;;5054198;28;20547;-86
2022/07/24 07:26:43;;;;;;;1.00;0.90;;;19.90;90.70;;;;;;5055927;28;20168;-85
2022/07/24 07:29:09;;;;;;;1.50;1.50;;;20.10;90.40;;;;;;5055851;28;20701;-85
2022/07/24 07:31:34;;;;;;;1.77;1.57;;;20.10;90.60;;;;;;5055674;28;20509;-85
2022/07/24 07:34:00;;;;;;;1.20;1.10;;;20.30;91.10;;;;;;5055146;28;20207;-85
2022/07/24 07:36:26;;;;;;;1.70;1.60;;;20.40;91.40;;;;;;5055465;28;20175;-85
2022/07/24 07:38:52;;;;;;;1.33;1.23;;;20.50;90.70;;;;;;5055798;28;20239;-86
2022/07/24 07:41:19;;;;;;;1.40;1.30;;;20.70;90.80;;;;;;5056617;28;20421;-85
2022/07/24 07:43:48;;;;;;;4.30;1.40;;;20.80;89.80;;;;;;5055226;28;20520;-85
2022/07/24 07:46:14;;;;;;;1.40;1.30;;;20.80;88.60;;;;;;5055212;28;20453;-86
2022/07/24 07:48:40;;;;;;;1.57;1.50;;;20.80;87.60;;;;;;5054638;28;20802;-85
2022/07/24 07:51:06;;;;;;;1.20;1.10;;;20.90;87.90;;;;;;5055037;28;20527;-85
2022/07/24 07:53:32;;;;;;;1.20;1.10;;;21.00;87.30;;;;;;5055573;28;20426;-86
2022/07/24 07:55:57;;;;;;;1.70;1.60;;;21.10;87.50;;;;;;5055253;28;20215;-85
2022/07/24 07:58:23;;;;;;;0.90;0.80;;;21.10;86.30;;;;;;5055120;28;20600;-86
2022/07/24 08:00:49;;;;;;;1.63;1.40;;;21.10;86.30;;;;;;5055372;28;20248;-84
2022/07/24 08:03:15;;;;;;;2.30;1.50;;;21.10;86.60;;;;;;5055227;28;20184;-85
2022/07/24 08:05:40;;;;;;;1.30;1.20;;;21.20;88.10;;;;;;5054990;28;20531;-85
2022/07/24 08:08:06;;;;;;;1.30;1.20;;;21.30;88.50;;;;;;5054832;28;20191;-85
2022/07/24 08:10:32;;;;;;;1.63;1.47;;;21.40;88.60;;;;;;5054914;28;20176;-85
2022/07/24 08:12:57;;;;;;;1.20;1.10;;;21.60;88.50;;;;;;5055930;28;20179;-85
2022/07/24 08:15:23;;;;;;;1.77;1.67;;;21.80;86.60;;;;;;5054211;28;20673;-86
2022/07/24 08:17:53;;;;;;;1.73;1.40;;;21.90;85.90;;;;;;5054187;28;20215;-86
2022/07/24 08:20:19;;;;;;;1.50;1.30;;;22.10;85.50;;;;;;5054640;28;20278;-85
2022/07/24 08:22:46;;;;;;;1.20;1.13;;;22.20;84.40;;;;;;5055259;28;20418;-86
2022/07/24 08:25:11;;;;;;;2.67;2.07;;;22.30;84.60;;;;;;5054571;28;20831;-85
2022/07/24 08:27:37;;;;;;;1.20;1.10;;;22.40;84.80;;;;;;5055994;28;20410;-85
2022/07/24 08:30:04;;;;;;;1.17;1.07;;;22.40;85.40;;;;;;5054827;28;20176;-85
2022/07/24 08:32:30;;;;;;;1.67;1.63;;;22.50;84.80;;;;;;5054426;28;20518;-85
2022/07/24 08:34:55;;;;;;;2.30;1.97;;;22.60;86.10;;;;;;5054821;28;20468;-85
2022/07/24 08:37:21;;;;;;;1.50;1.40;;;22.70;86.20;;;;;;5054209;28;20191;-86
2022/07/24 08:39:47;;;;;;;1.73;1.27;;;22.80;83.90;;;;;;5054043;28;20669;-85
2022/07/24 08:42:12;;;;;;;1.50;1.10;;;22.90;83.50;;;;;;5054291;28;20172;-85
2022/07/24 08:44:39;;;;;;;1.70;1.60;;;22.90;83.50;;;;;;5054078;28;20180;-85
2022/07/24 08:47:08;;;;;;;1.53;1.10;;;23.00;83.70;;;;;;5054071;28;20180;-87
2022/07/24 08:49:35;;;;;;;1.80;1.80;;;23.10;82.80;;;;;;5054387;28;20433;-87
2022/07/24 08:52:04;;;;;;;1.50;1.40;;;23.20;83.00;;;;;;5054390;28;20469;-86
2022/07/24 08:54:30;;;;;;;1.90;1.33;;;23.40;83.10;;;;;;5054296;28;20494;-86
2022/07/24 08:56:56;;;;;;;1.63;1.60;;;23.40;82.80;;;;;;5054239;28;20437;-86
2022/07/24 08:59:23;;;;;;;1.57;1.50;;;23.50;82.80;;;;;;5054379;28;20940;-84
2022/07/24 09:01:49;;;;;;;1.13;1.03;;;23.50;82.10;;;;;;5054154;28;20262;-85
2022/07/24 09:04:35;;;;;;;3.93;2.20;;;23.50;81.90;;;;;;5054186;28;20411;-84
2022/07/24 09:07:02;;;;;;;1.10;1.00;;;23.60;83.00;;;;;;5055044;28;20489;-84
2022/07/24 09:09:27;;;;;;;2.70;1.30;;;23.80;83.10;;;;;;5053778;28;20445;-83
2022/07/24 09:12:16;;;;;;;1.60;1.50;;;23.90;83.10;;;;;;5054242;28;20403;-85
2022/07/24 09:14:47;;;;;;;3.00;1.93;;;24.10;82.00;;;;;;5055111;28;20230;-84
2022/07/24 09:17:17;;;;;;;3.67;1.70;;;24.30;81.10;;;;;;5053385;28;20419;-85
2022/07/24 09:19:50;;;;;;;1.50;1.47;;;24.40;80.50;;;;;;5052896;28;20504;-86
2022/07/24 09:22:37;;;;;;;2.93;1.60;;;24.50;80.00;;;;;;5053313;28;20418;-85
2022/07/24 09:25:21;;;;;;;1.23;1.13;;;24.60;80.50;;;;;;5053293;28;20418;-86
2022/07/24 09:27:50;;;;;;;1.87;1.80;;;24.70;80.20;;;;;;5053839;28;20429;-84
2022/07/24 09:30:36;;;;;;;1.37;1.33;;;24.80;79.40;;;;;;5053857;28;20942;-83
2022/07/24 09:33:12;;;;;;;1.20;1.10;;;24.90;79.40;;;;;;5052296;28;20489;-84
2022/07/24 09:35:40;;;;;;;1.60;1.50;;;25.00;79.20;;;;;;5052031;28;20406;-84
2022/07/24 09:38:10;;;;;;;1.73;1.10;;;25.20;78.70;;;;;;5051065;28;20916;-83
2022/07/24 09:40:38;;;;;;;2.20;2.00;;;25.20;78.70;;;;;;5052617;28;20417;-84
2022/07/24 09:43:15;;;;;;;4.00;1.83;;;25.30;79.70;;;;;;5052197;28;20452;-82
2022/07/24 09:46:02;;;;;;;2.30;1.50;;;25.30;78.10;;;;;;5052932;28;20406;-84
2022/07/24 09:48:33;;;;;;;1.83;1.40;;;25.40;78.60;;;;;;5052979;28;20470;-84
2022/07/24 09:51:12;;;;;;;1.87;1.73;;;25.40;77.70;;;;;;5053657;28;21030;-84
2022/07/24 09:53:38;;;;;;;1.80;1.70;;;25.40;77.70;;;;;;5052167;28;20414;-85
2022/07/24 09:56:10;;;;;;;1.83;1.40;;;25.40;77.30;;;;;;5053732;28;20774;-84
2022/07/24 09:58:39;;;;;;;1.83;1.80;;;25.40;77.30;;;;;;5051536;28;20261;-85
2022/07/24 10:01:06;;;;;;;1.23;1.10;;;25.50;77.60;;;;;;5052505;28;20418;-85
2022/07/24 10:03:35;;;;;;;1.27;1.20;;;25.60;76.40;;;;;;5051542;28;20432;-84
2022/07/24 10:06:03;;;;;;;1.57;1.47;;;25.70;78.40;;;;;;5051511;28;20418;-84
2022/07/24 10:08:30;;;;;;;2.97;1.73;;;25.80;76.50;;;;;;5052073;28;20438;-84
2022/07/24 10:10:56;;;;;;;1.27;1.17;;;26.00;76.90;;;;;;5052202;28;20429;-83
2022/07/24 10:13:24;;;;;;;2.00;1.80;;;26.10;76.40;;;;;;5051888;28;20453;-85
2022/07/24 10:16:12;;;;;;;1.10;1.03;;;26.10;75.10;;;;;;5035685;28;20426;-84
2022/07/24 10:18:54;;;;;;;2.80;1.80;;;26.00;75.60;;;;;;5052045;28;20484;-84
2022/07/24 10:21:32;;;;;;;1.17;1.07;;;26.00;75.60;;;;;;5051372;28;20469;-83
2022/07/24 10:24:06;;;;;;;1.63;1.53;;;26.10;76.50;;;;;;5052721;28;20414;-83
2022/07/24 10:26:43;;;;;;;1.03;1.03;;;26.10;76.00;;;;;;5053310;28;20406;-84
2022/07/24 10:29:13;;;;;;;1.37;1.30;;;26.00;76.10;;;;;;5051328;28;20469;-83
2022/07/24 10:31:50;;;;;;;2.00;1.63;;;26.10;76.50;;;;;;5050494;28;20414;-82
2022/07/24 10:34:27;;;;;;;2.77;1.87;;;26.10;76.70;;;;;;5050793;28;20418;-84
2022/07/24 10:37:30;;;;;;;1.33;1.20;;;26.30;77.30;;;;;;5050946;28;20421;-83
2022/07/24 10:40:12;;;;;;;1.37;1.30;;;26.40;77.10;;;;;;5050693;28;20429;-86
2022/07/24 10:43:09;;;;;;;2.70;1.47;;;26.60;76.60;;;;;;5051740;28;20410;-84
2022/07/24 10:45:45;;;;;;;1.50;1.50;;;26.70;75.70;;;;;;5052642;28;20450;-84
2022/07/24 10:48:20;;;;;;;3.07;1.50;;;26.80;75.50;;;;;;5051296;28;20422;-84
2022/07/24 10:51:01;;;;;;;3.90;1.67;;;26.90;73.40;;;;;;5052095;28;20441;-83
2022/07/24 10:53:27;;;;;;;2.90;1.97;;;26.90;73.90;;;;;;5053169;28;20394;-85
2022/07/24 10:56:13;;;;;;;1.30;1.20;;;26.90;73.70;;;;;;5052090;28;20445;-85
2022/07/24 10:58:59;;;;;;;1.10;1.03;;;27.00;73.60;;;;;;5050395;28;20477;-85
2022/07/24 11:01:35;;;;;;;3.03;1.60;;;27.10;73.00;;;;;;5051026;28;20406;-84
2022/07/24 11:04:25;;;;;;;3.50;2.53;;;27.20;72.80;;;;;;5051891;28;20420;-84
2022/07/24 11:07:07;;;;;;;6.40;2.00;;;27.20;71.90;;;;;;5070930;28;20517;-85
2022/07/24 11:09:59;;;;;;;1.27;1.17;;;27.30;71.30;;;;;;5071782;28;20426;-85
2022/07/24 11:12:32;;;;;;;2.53;1.40;;;27.30;71.60;;;;;;5071362;28;20394;-84
2022/07/24 11:17:49;;;;;;;1.40;1.30;;;27.40;72.30;;;;;;5072504;28;20476;-85
2022/07/24 11:20:17;;;;;;;2.23;1.37;;;27.50;70.90;;;;;;5072150;28;20405;-84
2022/07/24 11:22:51;;;;;;;1.20;1.10;;;27.60;71.40;;;;;;5072456;28;20406;-84
2022/07/24 11:25:19;;;;;;;1.17;1.07;;;27.70;70.70;;;;;;5071019;28;20436;-84
2022/07/24 11:27:51;;;;;;;1.20;1.10;;;27.70;70.60;;;;;;5071703;28;20409;-83
2022/07/24 11:30:18;;;;;;;2.80;1.83;;;27.80;72.60;;;;;;5070123;28;20406;-83
2022/07/24 11:32:44;;;;;;;2.57;2.03;;;27.90;71.90;;;;;;5051300;28;20440;-84
2022/07/24 11:35:10;;;;;;;1.07;0.97;;;28.00;72.40;;;;;;5050210;28;20418;-83
2022/07/24 11:37:37;;;;;;;1.50;1.27;;;28.00;71.60;;;;;;5061367;22;20251;-83
2022/07/24 11:40:05;;;;;;;1.30;1.30;;;28.10;72.00;;;;;;5020357;28;20173;-84
2022/07/24 11:42:31;;;;;;;1.73;1.63;;;28.20;72.70;;;;;;5025189;28;20411;-84
2022/07/24 11:44:57;;;;;;;2.00;1.90;;;28.20;71.00;;;;;;5011980;28;20396;-84
2022/07/24 11:47:26;;;;;;;2.60;1.80;;;28.30;71.00;;;;;;5024075;28;20260;-84
2022/07/24 11:50:04;;;;;;;2.13;1.40;;;28.40;70.50;;;;;;5009790;28;20546;-84
2022/07/24 11:52:32;;;;;;;1.77;1.20;;;28.50;69.50;;;;;;5006451;28;20420;-84
2022/07/24 11:55:00;;;;;;;2.73;1.80;;;28.60;69.80;;;;;;5015509;28;20469;-83
2022/07/24 11:57:28;;;;;;;1.80;1.70;;;28.60;68.40;;;;;;5015616;28;20467;-84
2022/07/24 11:59:54;;;;;;;1.70;1.60;;;28.60;69.90;;;;;;5011246;28;20416;-84
2022/07/24 12:02:21;;;;;;;2.33;1.80;;;28.60;69.30;;;;;;5010886;28;20460;-83
2022/07/24 12:04:48;;;;;;;3.90;1.47;;;28.70;69.90;;;;;;5010480;28;20408;-84
2022/07/24 12:07:17;;;;;;;2.10;1.03;;;28.80;71.20;;;;;;5010912;28;20495;-84
2022/07/24 12:10:04;;;;;;;1.63;1.30;;;28.90;70.40;;;;;;5013149;28;20540;-83
2022/07/24 12:12:37;;;;;;;3.00;1.77;;;29.10;71.30;;;;;;5013781;28;20423;-83
2022/07/24 12:15:08;;;;;;;0.90;0.80;;;29.20;70.60;;;;;;5014651;28;20412;-84
2022/07/24 12:17:52;;;;;;;2.17;2.03;;;29.40;70.80;;;;;;5014224;28;20455;-84
2022/07/24 12:20:21;;;;;;;2.00;1.30;;;29.50;70.20;;;;;;5014581;28;20575;-83
2022/07/24 12:22:47;;;;;;;1.30;1.20;;;29.60;68.40;;;;;;5014373;28;20416;-83
2022/07/24 12:25:14;;;;;;;2.67;1.73;;;29.80;67.40;;;;;;5014267;28;20503;-82
2022/07/24 12:27:44;;;;;;;1.20;1.10;;;29.90;67.80;;;;;;5014998;28;20173;-83
2022/07/24 12:30:29;;;;;;;1.73;1.20;;;29.90;64.00;;;;;;5015095;28;20408;-83
2022/07/24 12:33:05;;;;;;;2.50;1.47;;;29.90;63.60;;;;;;5016039;28;20428;-83
2022/07/24 12:35:53;;;;;;;1.10;1.10;;;29.90;64.80;;;;;;5009767;28;20420;-84
2022/07/24 12:38:35;;;;;;;1.40;1.30;;;30.00;64.60;;;;;;5014069;28;20671;-83
2022/07/24 12:41:10;;;;;;;1.40;1.10;;;30.10;65.10;;;;;;5005973;28;20408;-84
2022/07/24 12:43:59;;;;;;;1.17;1.07;;;30.20;64.30;;;;;;5014242;28;20454;-83
2022/07/24 12:46:38;;;;;;;5.67;1.97;;;30.20;64.70;;;;;;5023977;28;20434;-84
2022/07/24 12:49:09;;;;;;;1.57;1.37;;;30.20;63.90;;;;;;5014707;28;20432;-84
2022/07/24 12:51:51;;;;;;;2.67;1.40;;;30.20;63.50;;;;;;5014496;28;20471;-83
2022/07/24 12:54:18;;;;;;;1.10;1.00;;;30.20;65.30;;;;;;5013929;28;20785;-83
2022/07/24 12:56:44;;;;;;;1.20;1.00;;;30.40;66.30;;;;;;5013780;28;20463;-84